createdAt,value
2022-12-28T00:00:51.039Z,51.80
2022-12-28T00:02:22.824Z,52.05
2022-12-28T00:03:54.469Z,52.30
2022-12-28T00:05:26.113Z,52.40
2022-12-28T00:06:57.690Z,52.00
2022-12-28T00:08:29.177Z,52.16
2022-12-28T00:10:00.710Z,52.24
2022-12-28T00:11:32.263Z,52.07
2022-12-28T00:13:03.804Z,52.38
2022-12-28T00:14:35.392Z,52.56
2022-12-28T00:16:27.542Z,52.27
2022-12-28T00:17:59.241Z,52.38
2022-12-28T00:19:30.815Z,52.30
2022-12-28T00:21:02.569Z,52.57
2022-12-28T00:22:34.218Z,52.26
2022-12-28T00:24:05.845Z,52.40
2022-12-28T00:25:37.424Z,52.60
2022-12-28T00:27:09.018Z,52.61
2022-12-28T00:28:41.020Z,52.58
2022-12-28T00:30:12.901Z,52.64
2022-12-28T00:31:46.260Z,53.07
2022-12-28T00:33:17.879Z,52.76
2022-12-28T00:34:49.545Z,52.95
2022-12-28T00:36:21.057Z,52.82
2022-12-28T00:37:52.987Z,52.81
2022-12-28T00:39:24.614Z,52.54
2022-12-28T00:40:56.239Z,52.87
2022-12-28T00:42:27.778Z,52.65
2022-12-28T00:43:59.387Z,52.54
2022-12-28T00:45:31.030Z,52.44
2022-12-28T00:47:02.688Z,52.33
2022-12-28T00:48:34.502Z,52.32
2022-12-28T00:50:06.291Z,52.51
2022-12-28T00:51:37.830Z,52.68
2022-12-28T00:53:09.665Z,53.08
2022-12-28T00:54:41.259Z,52.53
2022-12-28T00:56:13.819Z,52.53
2022-12-28T00:57:45.439Z,52.65
2022-12-28T00:59:17.631Z,52.82
2022-12-28T01:00:49.473Z,52.55
2022-12-28T01:02:21.145Z,52.81
2022-12-28T01:03:54.785Z,53.11
2022-12-28T01:05:26.502Z,52.66
2022-12-28T01:06:58.201Z,53.20
2022-12-28T01:08:29.898Z,52.71
2022-12-28T01:10:01.522Z,52.89
2022-12-28T01:11:33.057Z,53.47
2022-12-28T01:13:04.663Z,53.30
2022-12-28T01:14:36.493Z,53.44
2022-12-28T01:16:14.591Z,53.08
2022-12-28T01:17:46.160Z,53.12
2022-12-28T01:19:20.844Z,53.22
2022-12-28T01:20:52.503Z,52.70
2022-12-28T01:22:24.135Z,53.09
2022-12-28T01:23:56.681Z,53.21
2022-12-28T01:25:28.321Z,53.13
2022-12-28T01:26:59.844Z,53.16
2022-12-28T01:28:31.506Z,53.30
2022-12-28T01:30:03.118Z,53.12
2022-12-28T01:31:34.797Z,53.18
2022-12-28T01:33:06.376Z,53.07
2022-12-28T01:34:38.030Z,53.40
2022-12-28T01:36:10.225Z,53.30
2022-12-28T01:37:41.931Z,53.33
2022-12-28T01:39:13.497Z,53.19
2022-12-28T01:40:45.216Z,53.14
2022-12-28T01:42:17.507Z,53.25
2022-12-28T01:43:52.123Z,53.18
2022-12-28T01:45:23.777Z,53.46
2022-12-28T01:46:55.301Z,53.22
2022-12-28T01:48:26.801Z,53.37
2022-12-28T01:50:18.663Z,53.32
2022-12-28T01:51:50.171Z,53.37
2022-12-28T01:53:21.674Z,53.22
2022-12-28T01:54:54.612Z,52.91
2022-12-28T01:56:26.172Z,53.49
2022-12-28T01:57:57.819Z,53.12
2022-12-28T01:59:30.491Z,53.14
2022-12-28T02:01:02.202Z,53.25
2022-12-28T02:02:34.122Z,53.37
2022-12-28T02:04:05.933Z,53.46
2022-12-28T02:05:38.795Z,53.67
2022-12-28T02:07:10.469Z,53.45
2022-12-28T02:08:44.379Z,53.19
2022-12-28T02:10:42.675Z,53.39
2022-12-28T02:12:12.503Z,53.63
2022-12-28T02:13:44.610Z,53.49
2022-12-28T02:15:22.764Z,53.87
2022-12-28T02:16:54.894Z,54.24
2022-12-28T02:18:26.640Z,53.98
2022-12-28T02:19:58.409Z,54.27
2022-12-28T02:21:42.142Z,54.00
2022-12-28T02:23:32.138Z,53.91
2022-12-28T02:25:22.499Z,53.88
2022-12-28T02:26:54.049Z,53.90
2022-12-28T02:28:43.816Z,54.44
2022-12-28T02:30:15.527Z,53.86
2022-12-28T02:31:51.908Z,54.16
2022-12-28T02:33:55.915Z,54.32
2022-12-28T02:35:45.205Z,54.26
2022-12-28T02:37:21.009Z,54.33
2022-12-28T02:38:54.359Z,54.39
2022-12-28T02:40:27.136Z,54.16
2022-12-28T02:41:58.794Z,53.64
2022-12-28T02:43:30.495Z,54.46
2022-12-28T02:45:20.720Z,54.16
2022-12-28T02:47:11.063Z,54.35
2022-12-28T02:49:01.669Z,53.60
2022-12-28T02:50:53.612Z,54.39
2022-12-28T02:52:44.252Z,54.55
2022-12-28T02:54:40.717Z,53.95
2022-12-28T02:56:38.571Z,54.02
2022-12-28T02:58:19.242Z,54.32
2022-12-28T03:00:00.175Z,53.91
2022-12-28T03:01:34.847Z,54.41
2022-12-28T03:03:09.540Z,54.76
2022-12-28T03:04:59.834Z,54.72
2022-12-28T03:06:58.758Z,54.48
2022-12-28T03:08:46.109Z,54.44
2022-12-28T03:10:20.719Z,54.70
2022-12-28T03:11:59.992Z,54.46
2022-12-28T03:13:45.529Z,54.93
2022-12-28T03:15:29.803Z,55.04
2022-12-28T03:17:20.474Z,55.06
2022-12-28T03:19:12.297Z,54.37
2022-12-28T03:21:02.780Z,54.43
2022-12-28T03:22:53.220Z,54.44
2022-12-28T03:24:43.318Z,54.12
2022-12-28T03:26:33.526Z,53.64
2022-12-28T03:28:23.905Z,53.39
2022-12-28T03:30:16.737Z,54.01
2022-12-28T03:31:48.423Z,53.65
2022-12-28T03:33:20.034Z,54.04
2022-12-28T03:34:51.693Z,53.75
2022-12-28T03:36:26.091Z,54.37
2022-12-28T03:37:58.636Z,53.85
2022-12-28T03:39:35.909Z,54.43
2022-12-28T03:41:08.488Z,54.40
2022-12-28T03:42:59.485Z,54.30
2022-12-28T03:44:32.598Z,54.82
2022-12-28T03:46:11.755Z,54.46
2022-12-28T03:47:43.354Z,54.47
2022-12-28T03:49:15.485Z,54.67
2022-12-28T03:50:47.624Z,54.61
2022-12-28T03:52:19.267Z,54.75
2022-12-28T03:53:50.981Z,54.46
2022-12-28T03:55:22.712Z,54.94
2022-12-28T03:56:54.212Z,54.86
2022-12-28T03:58:25.823Z,54.46
2022-12-28T03:59:57.518Z,54.43
2022-12-28T04:01:29.173Z,54.45
2022-12-28T04:03:00.852Z,54.54
2022-12-28T04:04:32.606Z,54.73
2022-12-28T04:06:04.488Z,54.42
2022-12-28T04:07:36.024Z,54.53
2022-12-28T04:09:07.712Z,55.10
2022-12-28T04:10:39.307Z,54.55
2022-12-28T04:12:12.627Z,55.34
2022-12-28T04:13:44.622Z,55.26
2022-12-28T04:15:16.180Z,54.50
2022-12-28T04:16:47.676Z,54.54
2022-12-28T04:18:19.308Z,54.83
2022-12-28T04:19:50.988Z,54.58
2022-12-28T04:21:22.516Z,55.26
2022-12-28T04:22:54.144Z,54.69
2022-12-28T04:24:25.829Z,55.22
2022-12-28T04:26:07.477Z,55.04
2022-12-28T04:27:39.166Z,54.76
2022-12-28T04:29:10.829Z,54.33
2022-12-28T04:30:42.343Z,54.96
2022-12-28T04:32:14.031Z,54.91
2022-12-28T04:33:45.555Z,54.37
2022-12-28T04:35:17.089Z,54.39
2022-12-28T04:36:48.848Z,54.84
2022-12-28T04:38:20.677Z,54.94
2022-12-28T04:39:55.092Z,55.22
2022-12-28T04:41:28.676Z,54.85
2022-12-28T04:43:00.177Z,55.39
2022-12-28T04:44:32.626Z,55.03
2022-12-28T04:46:05.108Z,55.49
2022-12-28T04:47:36.740Z,54.67
2022-12-28T04:49:08.799Z,54.58
2022-12-28T04:50:40.409Z,55.30
2022-12-28T04:52:12.140Z,55.15
2022-12-28T04:53:43.730Z,54.96
2022-12-28T04:55:32.430Z,55.21
2022-12-28T04:57:05.114Z,54.95
2022-12-28T04:58:36.627Z,54.86
2022-12-28T05:00:08.535Z,54.85
2022-12-28T05:01:40.390Z,54.54
2022-12-28T05:03:12.113Z,54.59
2022-12-28T05:04:44.407Z,54.61
2022-12-28T05:06:16.916Z,54.97
2022-12-28T05:07:48.495Z,55.00
2022-12-28T05:09:20.048Z,54.62
2022-12-28T05:10:51.658Z,54.33
2022-12-28T05:12:23.268Z,54.20
2022-12-28T05:13:55.036Z,54.62
2022-12-28T05:15:26.598Z,54.77
2022-12-28T05:16:58.139Z,55.18
2022-12-28T05:18:29.778Z,54.76
2022-12-28T05:20:01.295Z,55.58
2022-12-28T05:21:32.947Z,55.14
2022-12-28T05:23:04.499Z,55.27
2022-12-28T05:24:36.031Z,55.39
2022-12-28T05:26:07.942Z,55.06
2022-12-28T05:27:39.445Z,55.27
2022-12-28T05:29:11.155Z,55.59
2022-12-28T05:30:42.818Z,54.85
2022-12-28T05:32:14.533Z,54.85
2022-12-28T05:33:47.757Z,54.75
2022-12-28T05:35:19.431Z,55.11
2022-12-28T05:36:51.084Z,55.68
2022-12-28T05:38:22.707Z,55.49
2022-12-28T05:39:54.405Z,55.33
2022-12-28T05:41:27.149Z,54.83
2022-12-28T05:42:59.798Z,54.91
2022-12-28T05:44:31.530Z,55.59
2022-12-28T05:46:03.613Z,55.07
2022-12-28T05:47:35.119Z,55.13
2022-12-28T05:49:08.069Z,55.05
2022-12-28T05:50:39.833Z,55.28
2022-12-28T05:52:11.573Z,55.09
2022-12-28T05:53:43.453Z,55.21
2022-12-28T05:55:15.113Z,55.52
2022-12-28T05:56:47.031Z,56.04
2022-12-28T05:58:19.213Z,55.71
2022-12-28T05:59:51.469Z,55.73
2022-12-28T06:01:23.712Z,56.16
2022-12-28T06:02:55.364Z,55.85
2022-12-28T06:04:27.237Z,55.88
2022-12-28T06:06:02.630Z,55.46
2022-12-28T06:07:34.216Z,55.99
2022-12-28T06:09:05.972Z,55.87
2022-12-28T06:10:37.576Z,55.84
2022-12-28T06:12:09.223Z,55.29
2022-12-28T06:13:41.087Z,55.78
2022-12-28T06:15:13.076Z,55.78
2022-12-28T06:16:46.428Z,55.84
2022-12-28T06:18:18.461Z,55.45
2022-12-28T06:19:50.223Z,55.79
2022-12-28T06:21:21.870Z,55.37
2022-12-28T06:22:53.572Z,56.16
2022-12-28T06:24:25.333Z,55.72
2022-12-28T06:25:58.273Z,55.47
2022-12-28T06:27:29.991Z,55.04
2022-12-28T06:29:04.450Z,55.08
2022-12-28T06:30:36.911Z,55.01
2022-12-28T06:32:15.296Z,55.40
2022-12-28T06:33:47.585Z,55.57
2022-12-28T06:35:19.951Z,55.29
2022-12-28T06:36:53.101Z,54.83
2022-12-28T06:38:30.392Z,54.43
2022-12-28T06:40:03.397Z,54.95
2022-12-28T06:41:35.846Z,54.32
2022-12-28T06:43:08.050Z,55.13
2022-12-28T06:44:44.821Z,54.36
2022-12-28T06:46:19.600Z,54.93
2022-12-28T06:47:51.492Z,54.76
2022-12-28T06:49:24.309Z,54.91
2022-12-28T06:51:17.151Z,55.00
2022-12-28T06:52:48.926Z,54.84
2022-12-28T06:54:20.760Z,55.24
2022-12-28T06:55:53.916Z,55.25
2022-12-28T06:57:25.964Z,55.52
2022-12-28T06:59:02.792Z,55.62
2022-12-28T07:00:35.931Z,54.64
2022-12-28T07:02:11.325Z,54.82
2022-12-28T07:03:45.300Z,54.49
2022-12-28T07:05:17.775Z,54.86
2022-12-28T07:06:53.622Z,54.58
2022-12-28T07:08:25.725Z,54.69
2022-12-28T07:09:57.783Z,54.56
2022-12-28T07:11:30.149Z,54.77
2022-12-28T07:13:02.544Z,54.80
2022-12-28T07:14:34.291Z,55.31
2022-12-28T07:16:14.048Z,54.63
2022-12-28T07:17:59.003Z,54.79
2022-12-28T07:19:31.098Z,54.63
2022-12-28T07:21:04.212Z,55.24
2022-12-28T07:22:36.278Z,55.24
2022-12-28T07:24:08.617Z,55.14
2022-12-28T07:25:41.013Z,55.03
2022-12-28T07:27:19.131Z,55.38
2022-12-28T07:28:52.642Z,55.43
2022-12-28T07:30:24.357Z,55.71
2022-12-28T07:31:56.426Z,55.40
2022-12-28T07:33:28.326Z,55.63
2022-12-28T07:35:00.078Z,55.22
2022-12-28T07:36:34.557Z,55.24
2022-12-28T07:38:06.347Z,55.10
2022-12-28T07:39:38.255Z,55.17
2022-12-28T07:41:42.474Z,54.99
2022-12-28T07:43:12.706Z,54.87
2022-12-28T07:44:49.174Z,55.22
2022-12-28T07:46:25.592Z,55.40
2022-12-28T07:47:57.966Z,55.17
2022-12-28T07:49:29.751Z,55.72
2022-12-28T07:51:13.481Z,55.47
2022-12-28T07:52:45.712Z,55.46
2022-12-28T07:54:17.676Z,55.38
2022-12-28T07:55:56.549Z,55.02
2022-12-28T07:57:28.289Z,55.16
2022-12-28T07:59:00.682Z,55.10
2022-12-28T08:00:32.505Z,55.23
2022-12-28T08:02:04.598Z,55.44
2022-12-28T08:03:36.645Z,55.59
2022-12-28T08:05:08.763Z,55.23
2022-12-28T08:06:42.002Z,55.01
2022-12-28T08:08:17.433Z,55.21
2022-12-28T08:10:02.513Z,55.29
2022-12-28T08:11:35.099Z,55.30
2022-12-28T08:13:06.999Z,55.63
2022-12-28T08:14:38.911Z,55.64
2022-12-28T08:16:12.007Z,55.38
2022-12-28T08:17:44.427Z,55.29
2022-12-28T08:19:16.288Z,55.54
2022-12-28T08:20:48.817Z,55.26
2022-12-28T08:22:20.672Z,54.98
2022-12-28T08:23:52.494Z,55.14
2022-12-28T08:25:26.215Z,55.21
2022-12-28T08:26:58.309Z,55.10
2022-12-28T08:28:30.079Z,55.12
2022-12-28T08:30:01.778Z,54.85
2022-12-28T08:31:35.348Z,54.89
2022-12-28T08:33:16.263Z,54.80
2022-12-28T08:34:48.284Z,54.87
2022-12-28T08:36:20.167Z,55.07
2022-12-28T08:37:54.958Z,55.63
2022-12-28T08:39:27.439Z,55.35
2022-12-28T08:40:59.920Z,55.67
2022-12-28T08:42:31.854Z,55.51
2022-12-28T08:44:03.740Z,55.80
2022-12-28T08:45:36.180Z,55.31
2022-12-28T08:47:07.895Z,55.41
2022-12-28T08:48:39.660Z,55.10
2022-12-28T08:50:12.343Z,55.44
2022-12-28T08:51:44.553Z,54.93
2022-12-28T08:53:16.429Z,54.95
2022-12-28T08:54:48.183Z,55.44
2022-12-28T08:56:23.489Z,54.79
2022-12-28T08:57:55.310Z,54.79
2022-12-28T08:59:27.496Z,55.08
2022-12-28T09:01:20.063Z,55.13
2022-12-28T09:02:52.470Z,55.06
2022-12-28T09:04:24.419Z,55.23
2022-12-28T09:05:56.556Z,55.39
2022-12-28T09:07:28.602Z,54.92
2022-12-28T09:09:06.290Z,55.04
2022-12-28T09:10:39.152Z,55.28
2022-12-28T09:12:10.959Z,54.99
2022-12-28T09:14:36.512Z,55.01
2022-12-28T09:16:14.851Z,55.41
2022-12-28T09:17:47.219Z,55.42
2022-12-28T09:19:19.392Z,55.46
2022-12-28T09:20:51.109Z,55.86
2022-12-28T09:22:23.891Z,56.08
2022-12-28T09:23:55.820Z,55.79
2022-12-28T09:25:27.485Z,55.90
2022-12-28T09:26:59.162Z,55.31
2022-12-28T09:28:31.112Z,55.79
2022-12-28T09:30:04.118Z,55.89
2022-12-28T09:31:40.534Z,55.44
2022-12-28T09:33:31.311Z,54.82
2022-12-28T09:35:03.336Z,54.86
2022-12-28T09:36:39.154Z,54.53
2022-12-28T09:38:10.947Z,54.44
2022-12-28T09:39:42.630Z,54.45
2022-12-28T09:41:26.267Z,54.32
2022-12-28T09:43:01.431Z,54.29
2022-12-28T09:45:05.136Z,54.34
2022-12-28T09:46:37.246Z,54.38
2022-12-28T09:48:11.003Z,54.28
2022-12-28T09:49:44.797Z,54.35
2022-12-28T09:51:16.665Z,54.20
2022-12-28T09:52:54.093Z,54.21
2022-12-28T09:54:26.054Z,54.67
2022-12-28T09:55:59.091Z,54.44
2022-12-28T09:57:33.737Z,54.84
2022-12-28T09:59:06.082Z,54.62
2022-12-28T10:00:39.017Z,54.64
2022-12-28T10:02:27.414Z,54.70
2022-12-28T10:03:59.766Z,54.45
2022-12-28T10:05:31.561Z,54.88
2022-12-28T10:07:03.419Z,54.75
2022-12-28T10:08:35.126Z,54.72
2022-12-28T10:10:07.114Z,55.11
2022-12-28T10:11:42.127Z,55.04
2022-12-28T10:13:45.442Z,54.97
2022-12-28T10:15:10.108Z,54.65
2022-12-28T10:16:46.947Z,54.98
2022-12-28T10:18:22.618Z,55.29
2022-12-28T10:19:55.062Z,55.40
2022-12-28T10:21:32.463Z,55.55
2022-12-28T10:23:04.474Z,55.35
2022-12-28T10:24:36.169Z,55.45
2022-12-28T10:26:07.758Z,54.68
2022-12-28T10:27:39.466Z,54.64
2022-12-28T10:29:14.132Z,54.68
2022-12-28T10:30:48.519Z,54.79
2022-12-28T10:32:20.456Z,54.61
2022-12-28T10:33:52.644Z,54.58
2022-12-28T10:35:25.539Z,54.50
2022-12-28T10:36:59.629Z,54.57
2022-12-28T10:38:32.451Z,54.42
2022-12-28T10:40:06.961Z,54.84
2022-12-28T10:41:39.239Z,54.25
2022-12-28T10:43:18.421Z,54.32
2022-12-28T10:44:50.236Z,54.44
2022-12-28T10:46:24.712Z,54.48
2022-12-28T10:47:57.269Z,54.34
2022-12-28T10:49:32.253Z,54.94
2022-12-28T10:51:13.805Z,54.40
2022-12-28T10:52:55.358Z,54.12
2022-12-28T10:54:27.582Z,54.18
2022-12-28T10:56:15.016Z,53.75
2022-12-28T10:58:19.052Z,53.58
2022-12-28T10:59:41.256Z,54.33
2022-12-28T11:01:13.130Z,53.60
2022-12-28T11:02:45.112Z,54.33
2022-12-28T11:04:20.678Z,53.50
2022-12-28T11:06:07.999Z,53.44
2022-12-28T11:07:41.333Z,53.44
2022-12-28T11:09:13.091Z,54.03
2022-12-28T11:10:45.064Z,53.64
2022-12-28T11:12:17.447Z,53.83
2022-12-28T11:13:51.287Z,53.68
2022-12-28T11:15:24.126Z,53.04
2022-12-28T11:16:55.948Z,53.37
2022-12-28T11:18:30.808Z,53.61
2022-12-28T11:20:14.920Z,52.91
2022-12-28T11:21:49.724Z,53.34
2022-12-28T11:23:22.088Z,53.35
2022-12-28T11:24:53.998Z,52.85
2022-12-28T11:26:26.457Z,53.24
2022-12-28T11:27:58.188Z,53.43
2022-12-28T11:29:29.866Z,53.24
2022-12-28T11:31:01.622Z,52.82
2022-12-28T11:32:39.973Z,52.87
2022-12-28T11:34:19.799Z,53.01
2022-12-28T11:35:58.937Z,53.27
2022-12-28T11:37:31.549Z,53.40
2022-12-28T11:39:23.183Z,53.44
2022-12-28T11:41:04.080Z,53.15
2022-12-28T11:42:53.128Z,53.26
2022-12-28T11:44:30.759Z,53.14
2022-12-28T11:46:06.041Z,52.84
2022-12-28T11:47:37.947Z,52.79
2022-12-28T11:49:26.171Z,52.65
2022-12-28T11:51:04.808Z,52.84
2022-12-28T11:52:44.736Z,52.61
2022-12-28T11:54:34.768Z,52.10
2022-12-28T11:56:09.671Z,51.91
2022-12-28T11:57:42.756Z,52.35
2022-12-28T11:59:27.412Z,52.00
2022-12-28T12:01:05.417Z,51.92
2022-12-28T12:02:43.007Z,51.92
2022-12-28T12:04:18.531Z,51.99
2022-12-28T12:05:51.218Z,51.92
2022-12-28T12:07:30.685Z,52.48
2022-12-28T12:09:03.679Z,52.20
2022-12-28T12:10:35.790Z,52.33
2022-12-28T12:12:18.572Z,52.18
2022-12-28T12:13:50.756Z,52.50
2022-12-28T12:15:24.969Z,51.50
2022-12-28T12:17:06.469Z,51.79
2022-12-28T12:18:49.248Z,52.21
2022-12-28T12:20:26.313Z,51.70
2022-12-28T12:22:01.507Z,51.95
2022-12-28T12:23:41.072Z,52.21
2022-12-28T12:25:12.757Z,51.70
2022-12-28T12:26:45.633Z,51.82
2022-12-28T12:28:38.431Z,51.78
2022-12-28T12:30:15.680Z,51.61
2022-12-28T12:31:49.280Z,52.20
2022-12-28T12:33:25.817Z,51.71
2022-12-28T12:35:08.723Z,51.62
2022-12-28T12:36:52.500Z,51.94
2022-12-28T12:38:41.158Z,51.61
2022-12-28T12:40:35.603Z,51.93
2022-12-28T12:42:24.557Z,51.83
2022-12-28T12:44:07.184Z,52.24
2022-12-28T12:45:41.933Z,51.64
2022-12-28T12:47:13.880Z,52.11
2022-12-28T12:49:04.358Z,51.82
2022-12-28T12:50:46.839Z,52.00
2022-12-28T12:52:35.259Z,51.51
2022-12-28T12:54:31.529Z,51.87
2022-12-28T12:56:08.531Z,51.76
2022-12-28T12:57:46.211Z,51.10
2022-12-28T12:59:20.740Z,51.02
2022-12-28T13:01:01.763Z,51.67
2022-12-28T13:02:39.353Z,51.00
2022-12-28T13:04:18.683Z,51.76
2022-12-28T13:05:53.977Z,51.49
2022-12-28T13:07:26.269Z,50.87
2022-12-28T13:09:04.806Z,51.03
2022-12-28T13:10:38.163Z,50.92
2022-12-28T13:12:14.465Z,51.48
2022-12-28T13:13:47.017Z,51.07
2022-12-28T13:15:18.749Z,51.08
2022-12-28T13:16:51.368Z,51.06
2022-12-28T13:20:21.443Z,51.18
2022-12-28T13:21:53.260Z,51.33
2022-12-28T13:23:25.081Z,51.88
2022-12-28T13:24:56.938Z,51.43
2022-12-28T13:26:29.403Z,51.63
2022-12-28T13:28:04.108Z,51.52
2022-12-28T13:29:40.677Z,51.27
2022-12-28T13:31:21.072Z,51.36
2022-12-28T13:32:54.065Z,51.46
2022-12-28T13:34:27.646Z,51.71
2022-12-28T13:36:25.674Z,51.38
2022-12-28T13:38:09.288Z,51.79
2022-12-28T13:39:42.283Z,51.44
2022-12-28T13:41:19.106Z,51.38
2022-12-28T13:43:04.844Z,51.12
2022-12-28T13:44:39.716Z,51.14
2022-12-28T13:46:11.879Z,51.73
2022-12-28T13:47:44.851Z,51.20
2022-12-28T13:49:16.849Z,51.27
2022-12-28T13:50:56.176Z,51.68
2022-12-28T13:52:30.830Z,51.58
2022-12-28T13:54:02.779Z,51.59
2022-12-28T13:55:44.937Z,52.04
2022-12-28T13:59:17.633Z,52.40
2022-12-28T14:00:50.117Z,51.98
2022-12-28T14:02:22.114Z,52.33
2022-12-28T14:04:08.877Z,51.77
2022-12-28T14:05:48.287Z,52.56
2022-12-28T14:07:20.334Z,52.60
2022-12-28T14:08:52.110Z,52.68
2022-12-28T14:10:25.238Z,52.58
2022-12-28T14:12:05.615Z,51.82
2022-12-28T14:13:38.363Z,52.40
2022-12-28T14:15:10.943Z,52.47
2022-12-28T14:16:42.547Z,52.28
2022-12-28T14:18:15.036Z,52.01
2022-12-28T14:19:46.754Z,52.38
2022-12-28T14:21:32.079Z,52.54
2022-12-28T14:23:22.964Z,52.16
2022-12-28T14:25:01.463Z,51.73
2022-12-28T14:26:33.165Z,51.80
2022-12-28T14:28:08.304Z,51.92
2022-12-28T14:29:42.726Z,52.22
2022-12-28T14:31:21.130Z,52.41
2022-12-28T14:32:55.231Z,52.32
2022-12-28T14:34:28.993Z,52.49
2022-12-28T14:36:01.997Z,52.48
2022-12-28T14:37:36.064Z,52.22
2022-12-28T14:39:15.989Z,52.43
2022-12-28T14:40:55.547Z,52.78
2022-12-28T14:42:27.255Z,52.38
2022-12-28T14:44:00.323Z,51.89
2022-12-28T14:46:07.225Z,52.56
2022-12-28T14:47:35.427Z,52.54
2022-12-28T14:49:25.812Z,52.15
2022-12-28T14:50:57.754Z,52.40
2022-12-28T14:52:29.781Z,52.42
2022-12-28T14:54:17.454Z,52.61
2022-12-28T14:55:58.437Z,52.98
2022-12-28T14:57:40.365Z,52.88
2022-12-28T14:59:22.555Z,52.59
2022-12-28T15:00:58.190Z,53.05
2022-12-28T15:02:41.409Z,52.86
2022-12-28T15:04:30.645Z,52.94
2022-12-28T15:06:03.264Z,53.05
2022-12-28T15:07:35.137Z,52.86
2022-12-28T15:09:11.706Z,52.80
2022-12-28T15:10:53.798Z,52.94
2022-12-28T15:12:25.572Z,53.26
2022-12-28T15:13:57.612Z,53.62
2022-12-28T15:15:29.329Z,53.55
2022-12-28T15:17:01.060Z,53.58
2022-12-28T15:18:35.455Z,53.69
2022-12-28T15:20:07.812Z,53.89
2022-12-28T15:21:39.876Z,53.70
2022-12-28T15:23:11.660Z,53.84
2022-12-28T15:24:45.687Z,53.80
2022-12-28T15:26:20.794Z,54.07
2022-12-28T15:27:52.941Z,53.71
2022-12-28T15:29:39.982Z,54.13
2022-12-28T15:31:18.193Z,54.18
2022-12-28T15:32:50.283Z,53.91
2022-12-28T15:34:22.013Z,53.83
2022-12-28T15:36:01.999Z,53.96
2022-12-28T15:37:33.957Z,53.88
2022-12-28T15:39:05.682Z,53.99
2022-12-28T15:40:39.565Z,53.92
2022-12-28T15:42:11.259Z,54.02
2022-12-28T15:43:43.116Z,54.09
2022-12-28T15:45:18.026Z,54.13
2022-12-28T15:46:53.137Z,54.23
2022-12-28T15:48:25.233Z,54.29
2022-12-28T15:49:59.403Z,53.96
2022-12-28T15:51:31.307Z,53.72
2022-12-28T15:53:03.076Z,54.00
2022-12-28T15:54:35.607Z,53.58
2022-12-28T15:56:07.381Z,53.61
2022-12-28T15:57:39.016Z,53.77
2022-12-28T15:59:14.618Z,53.69
2022-12-28T16:00:48.755Z,53.82
2022-12-28T16:02:21.170Z,53.41
2022-12-28T16:03:54.244Z,53.59
2022-12-28T16:05:25.935Z,53.37
2022-12-28T16:06:57.751Z,53.43
2022-12-28T16:08:30.332Z,53.69
2022-12-28T16:10:02.019Z,53.51
2022-12-28T16:11:34.449Z,53.94
2022-12-28T16:13:06.175Z,53.64
2022-12-28T16:14:37.765Z,53.40
2022-12-28T16:16:10.435Z,53.38
2022-12-28T16:17:55.113Z,53.46
2022-12-28T16:19:29.221Z,53.37
2022-12-28T16:21:02.141Z,53.76
2022-12-28T16:22:38.194Z,53.60
2022-12-28T16:24:09.948Z,53.65
2022-12-28T16:25:49.175Z,53.56
2022-12-28T16:27:21.119Z,53.58
2022-12-28T16:28:53.022Z,53.66
2022-12-28T16:30:24.755Z,53.60
2022-12-28T16:31:58.499Z,53.57
2022-12-28T16:33:30.128Z,53.41
2022-12-28T16:35:02.313Z,53.59
2022-12-28T16:36:34.517Z,53.99
2022-12-28T16:38:13.433Z,54.23
2022-12-28T16:39:45.306Z,54.23
2022-12-28T16:41:18.164Z,54.23
2022-12-28T16:42:49.951Z,53.95
2022-12-28T16:44:22.472Z,54.14
2022-12-28T16:45:54.265Z,54.19
2022-12-28T16:47:26.048Z,54.54
2022-12-28T16:49:02.001Z,54.18
2022-12-28T16:50:33.759Z,54.05
2022-12-28T16:52:05.914Z,54.33
2022-12-28T16:53:37.489Z,53.79
2022-12-28T16:55:09.280Z,53.75
2022-12-28T16:56:41.131Z,54.06
2022-12-28T16:58:12.852Z,53.95
2022-12-28T16:59:44.557Z,54.41
2022-12-28T17:01:16.370Z,54.39
2022-12-28T17:02:48.820Z,54.38
2022-12-28T17:04:20.900Z,54.50
2022-12-28T17:05:58.651Z,54.79
2022-12-28T17:07:32.812Z,54.31
2022-12-28T17:09:04.732Z,54.42
2022-12-28T17:10:39.146Z,54.50
2022-12-28T17:12:10.808Z,54.10
2022-12-28T17:13:49.623Z,54.12
2022-12-28T17:15:21.342Z,54.28
2022-12-28T17:16:53.109Z,54.13
2022-12-28T17:18:24.842Z,53.92
2022-12-28T17:20:00.100Z,53.64
2022-12-28T17:21:32.134Z,54.13
2022-12-28T17:23:04.217Z,54.13
2022-12-28T17:24:36.410Z,53.96
2022-12-28T17:26:08.145Z,53.77
2022-12-28T17:27:39.870Z,53.71
2022-12-28T17:29:11.874Z,54.01
2022-12-28T17:30:43.644Z,54.01
2022-12-28T17:32:15.797Z,53.72
2022-12-28T17:33:47.971Z,53.63
2022-12-28T17:35:19.784Z,53.76
2022-12-28T17:36:52.975Z,53.84
2022-12-28T17:38:24.726Z,53.95
2022-12-28T17:39:56.507Z,53.87
2022-12-28T17:41:28.199Z,53.66
2022-12-28T17:42:59.882Z,53.93
2022-12-28T17:44:31.731Z,53.76
2022-12-28T17:46:03.430Z,53.92
2022-12-28T17:47:38.126Z,53.71
2022-12-28T17:49:13.465Z,53.87
2022-12-28T17:50:47.261Z,53.44
2022-12-28T17:52:21.978Z,53.62
2022-12-28T17:53:54.091Z,53.75
2022-12-28T17:55:25.849Z,53.37
2022-12-28T17:56:57.661Z,53.84
2022-12-28T17:58:29.611Z,53.94
2022-12-28T18:00:01.423Z,53.64
2022-12-28T18:01:33.695Z,53.70
2022-12-28T18:03:06.756Z,54.05
2022-12-28T18:04:38.994Z,53.44
2022-12-28T18:06:10.645Z,53.94
2022-12-28T18:07:42.267Z,54.06
2022-12-28T18:09:13.863Z,53.70
2022-12-28T18:10:48.219Z,53.69
2022-12-28T18:12:19.920Z,53.93
2022-12-28T18:13:51.824Z,53.56
2022-12-28T18:15:27.267Z,53.75
2022-12-28T18:17:01.524Z,53.50
2022-12-28T18:18:33.084Z,53.62
2022-12-28T18:20:04.968Z,53.96
2022-12-28T18:21:36.517Z,53.72
2022-12-28T18:23:08.351Z,53.60
2022-12-28T18:24:40.123Z,54.12
2022-12-28T18:26:15.564Z,53.67
2022-12-28T18:27:47.842Z,54.05
2022-12-28T18:29:19.474Z,54.29
2022-12-28T18:30:52.566Z,54.48
2022-12-28T18:32:26.020Z,54.25
2022-12-28T18:33:58.783Z,54.59
2022-12-28T18:35:30.547Z,54.14
2022-12-28T18:37:02.323Z,53.76
2022-12-28T18:38:34.701Z,54.10
2022-12-28T18:40:06.763Z,54.25
2022-12-28T18:41:38.854Z,54.22
2022-12-28T18:43:11.225Z,54.47
2022-12-28T18:44:43.116Z,54.41
2022-12-28T18:46:15.064Z,54.24
2022-12-28T18:47:46.804Z,53.90
2022-12-28T18:49:18.521Z,53.83
2022-12-28T18:50:54.215Z,54.04
2022-12-28T18:52:25.941Z,53.89
2022-12-28T18:53:57.643Z,54.43
2022-12-28T18:55:29.456Z,53.92
2022-12-28T18:57:01.944Z,54.32
2022-12-28T18:58:36.974Z,54.28
2022-12-28T19:00:09.254Z,54.47
2022-12-28T19:02:06.412Z,54.49
2022-12-28T19:03:33.067Z,54.39
2022-12-28T19:05:05.798Z,54.42
2022-12-28T19:06:37.568Z,54.31
2022-12-28T19:08:09.103Z,53.94
2022-12-28T19:10:03.751Z,53.69
2022-12-28T19:11:38.360Z,53.82
2022-12-28T19:13:10.092Z,53.96
2022-12-28T19:14:41.872Z,54.05
2022-12-28T19:16:15.172Z,54.03
2022-12-28T19:17:46.815Z,54.09
2022-12-28T19:19:19.170Z,53.74
2022-12-28T19:20:55.235Z,53.99
2022-12-28T19:22:26.978Z,53.83
2022-12-28T19:24:00.435Z,53.82
2022-12-28T19:25:32.165Z,53.48
2022-12-28T19:27:05.106Z,53.60
2022-12-28T19:28:41.025Z,53.42
2022-12-28T19:30:13.015Z,53.77
2022-12-28T19:31:45.019Z,53.82
2022-12-28T19:33:17.038Z,53.31
2022-12-28T19:34:48.881Z,53.74
2022-12-28T19:36:20.393Z,53.77
2022-12-28T19:37:52.214Z,53.17
2022-12-28T19:39:23.927Z,53.55
2022-12-28T19:40:55.884Z,53.81
2022-12-28T19:42:27.531Z,53.68
2022-12-28T19:43:59.715Z,53.38
2022-12-28T19:45:31.316Z,53.42
2022-12-28T19:47:02.961Z,53.49
2022-12-28T19:48:34.648Z,53.13
2022-12-28T19:50:06.389Z,53.48
2022-12-28T19:51:38.085Z,53.16
2022-12-28T19:53:09.859Z,53.10
2022-12-28T19:54:42.469Z,53.21
2022-12-28T19:56:15.100Z,52.82
2022-12-28T19:57:46.788Z,52.82
2022-12-28T19:59:18.482Z,52.90
2022-12-28T20:00:50.115Z,53.16
2022-12-28T20:02:21.778Z,53.61
2022-12-28T20:03:54.422Z,53.60
2022-12-28T20:05:26.519Z,53.19
2022-12-28T20:06:58.393Z,53.55
2022-12-28T20:08:30.111Z,53.08
2022-12-28T20:10:01.808Z,53.56
2022-12-28T20:11:33.576Z,53.03
2022-12-28T20:13:05.234Z,53.41
2022-12-28T20:14:37.009Z,53.68
2022-12-28T20:16:09.146Z,53.78
2022-12-28T20:17:42.249Z,53.96
2022-12-28T20:19:13.967Z,54.34
2022-12-28T20:21:17.160Z,54.16
2022-12-28T20:22:39.747Z,53.96
2022-12-28T20:24:11.950Z,54.18
2022-12-28T20:25:53.037Z,54.61